createdAt,value
2023-02-03T00:00:02.787Z,0
2023-02-03T00:05:02.786Z,0.04
2023-02-03T00:10:02.778Z,0.117
2023-02-03T00:15:02.937Z,0.114
2023-02-03T00:20:03.532Z,0.011
2023-02-03T00:25:02.789Z,0.115
2023-02-03T00:30:02.803Z,0.125
2023-02-03T00:35:02.816Z,0.049
2023-02-03T00:40:02.784Z,0
2023-02-03T00:45:02.852Z,0
2023-02-03T00:50:02.844Z,0
2023-02-03T00:55:02.833Z,0.003
2023-02-03T01:00:02.848Z,0.001
2023-02-03T01:05:02.834Z,0
2023-02-03T01:10:02.841Z,0
2023-02-03T01:15:02.874Z,0.055
2023-02-03T01:20:03.317Z,0.167
2023-02-03T01:25:02.898Z,0.156
2023-02-03T01:30:02.832Z,0.138
2023-02-03T01:35:02.888Z,0.10400000000000001
2023-02-03T01:40:02.825Z,0.107
2023-02-03T01:45:02.870Z,0.07200000000000001
2023-02-03T01:50:02.887Z,0
2023-02-03T01:55:02.963Z,0
2023-02-03T02:00:02.985Z,0
2023-02-03T02:05:02.881Z,0
2023-02-03T02:10:02.878Z,0
2023-02-03T02:15:02.901Z,0
2023-02-03T02:20:03.628Z,0
2023-02-03T02:25:02.883Z,0
2023-02-03T02:30:02.932Z,0
2023-02-03T02:35:02.905Z,0.083
2023-02-03T02:40:02.879Z,0.066
2023-02-03T02:45:02.907Z,0.042
2023-02-03T02:50:03.065Z,0.145
2023-02-03T02:55:02.900Z,0.10300000000000001
2023-02-03T03:00:02.958Z,0
2023-02-03T03:05:03.079Z,0
2023-02-03T03:10:02.883Z,0
2023-02-03T03:15:03.008Z,0
2023-02-03T03:20:03.923Z,0
2023-02-03T03:25:03.067Z,0.045
2023-02-03T03:30:03.023Z,0.023
2023-02-03T03:35:02.948Z,0.11900000000000001
2023-02-03T03:40:02.991Z,0.149
2023-02-03T03:45:02.952Z,0.148
2023-02-03T03:50:03.024Z,0.116
2023-02-03T03:55:03.001Z,0.005
2023-02-03T04:00:03.002Z,0.007
2023-02-03T04:05:03.008Z,0.006
2023-02-03T04:10:02.956Z,0
2023-02-03T04:15:03.003Z,0
2023-02-03T04:20:03.688Z,0
2023-02-03T04:25:02.967Z,0
2023-02-03T04:30:03.008Z,0
2023-02-03T04:35:02.999Z,0
2023-02-03T04:40:02.978Z,0
2023-02-03T04:45:03.057Z,0.046
2023-02-03T04:50:03.061Z,0.105
2023-02-03T04:55:03.121Z,0.10300000000000001
2023-02-03T05:00:03.014Z,0.114
2023-02-03T05:05:03.047Z,0.03
2023-02-03T05:10:03.009Z,0.127
2023-02-03T05:15:03.071Z,0.162
2023-02-03T05:20:03.813Z,0.002
2023-02-03T05:25:03.072Z,0.001
2023-02-03T05:30:03.205Z,0.007
2023-02-03T05:35:03.070Z,0.008
2023-02-03T05:40:03.078Z,0
2023-02-03T05:45:03.071Z,0
2023-02-03T05:50:03.207Z,0.013000000000000001
2023-02-03T05:55:03.178Z,0.025
2023-02-03T06:00:03.128Z,0
2023-02-03T06:05:03.109Z,0
2023-02-03T06:10:03.110Z,0
2023-02-03T06:15:03.086Z,0.033
2023-02-03T06:20:03.765Z,0.049
2023-02-03T06:25:03.127Z,0.013000000000000001
2023-02-03T06:30:03.143Z,0.026000000000000002
2023-02-03T06:35:03.094Z,0.029
2023-02-03T06:40:03.149Z,0.035
2023-02-03T06:45:03.184Z,0.017
2023-02-03T06:50:03.167Z,0.054
2023-02-03T06:55:03.186Z,0.074
2023-02-03T07:00:03.206Z,0.068
2023-02-03T07:05:03.165Z,0.07200000000000001
2023-02-03T07:10:03.292Z,0.046
2023-02-03T07:15:03.119Z,0.016
2023-02-03T07:20:03.086Z,0
2023-02-03T07:25:00.929Z,0
2023-02-03T07:30:00.900Z,0.033
2023-02-03T07:35:00.731Z,0.008
2023-02-03T07:40:00.791Z,0.001
2023-02-03T07:45:00.823Z,0.011
2023-02-03T07:50:00.854Z,0.059000000000000004
2023-02-03T07:55:00.847Z,0.063
2023-02-03T08:00:00.839Z,0.063
2023-02-03T08:05:00.914Z,0.064
2023-02-03T08:10:00.878Z,0.08600000000000001
2023-02-03T08:15:00.857Z,0.083
2023-02-03T08:20:03.619Z,0.033
2023-02-03T08:25:00.944Z,0.042
2023-02-03T08:30:00.921Z,0
2023-02-03T08:35:00.954Z,0
2023-02-03T08:40:00.890Z,0
2023-02-03T08:45:02.330Z,10.666
2023-02-03T08:50:00.980Z,31.996000000000002
2023-02-03T08:55:00.969Z,29.731
2023-02-03T09:00:01.019Z,46.092
2023-02-03T09:05:00.994Z,33.112
2023-02-03T09:10:00.953Z,95.402
2023-02-03T09:15:01.055Z,258.75
2023-02-03T09:20:03.924Z,411.177
2023-02-03T09:25:01.089Z,246.483
2023-02-03T09:30:01.001Z,203.495
2023-02-03T09:35:01.048Z,524.516
2023-02-03T09:40:01.055Z,509.213
2023-02-03T09:45:01.000Z,603.267
2023-02-03T09:50:01.126Z,552.099
2023-02-03T09:55:01.083Z,237.30100000000002
2023-02-03T10:00:01.062Z,143.937
2023-02-03T10:05:01.070Z,360.516
2023-02-03T10:10:01.026Z,480.196
2023-02-03T10:15:01.041Z,296.041
2023-02-03T10:20:03.697Z,278.964
2023-02-03T10:25:01.220Z,281.334
2023-02-03T10:30:00.922Z,207.186
2023-02-03T10:35:00.889Z,177.304
2023-02-03T10:40:01.090Z,255.716
2023-02-03T10:45:01.166Z,330.714
2023-02-03T10:50:00.971Z,286.03000000000003
2023-02-03T10:55:01.186Z,477.841
2023-02-03T11:00:01.106Z,526.589
2023-02-03T11:05:01.109Z,271.717
2023-02-03T11:10:01.093Z,218.288
2023-02-03T11:15:01.111Z,388.091
2023-02-03T11:20:03.554Z,735.139
2023-02-03T11:25:01.146Z,2151.867
2023-02-03T11:30:01.086Z,1021.025
2023-02-03T11:35:01.092Z,392.559
2023-02-03T11:40:01.155Z,270.78000000000003
2023-02-03T11:45:01.125Z,240.64000000000001
2023-02-03T11:50:01.155Z,689.765
2023-02-03T11:55:01.306Z,823.056
2023-02-03T12:00:01.125Z,735.093
2023-02-03T12:05:01.343Z,714.708
2023-02-03T12:10:01.145Z,488.294
2023-02-03T12:15:01.201Z,374.175
2023-02-03T12:20:03.404Z,411.668
2023-02-03T12:25:01.161Z,265.611
2023-02-03T12:30:01.208Z,255.046
2023-02-03T12:35:01.104Z,280.967
2023-02-03T12:40:01.349Z,238.234
2023-02-03T12:45:01.155Z,205.84300000000002
2023-02-03T12:50:01.288Z,165.209
2023-02-03T12:55:01.191Z,100.249
2023-02-03T13:00:01.159Z,125.007
2023-02-03T13:05:01.220Z,140.965
2023-02-03T13:15:01.289Z,290.366
2023-02-03T13:20:03.470Z,401.627
2023-02-03T13:25:01.084Z,465.366
2023-02-03T13:30:01.089Z,298.367
2023-02-03T13:35:01.062Z,148.281
2023-02-03T13:40:01.076Z,163.80100000000002
2023-02-03T13:45:01.083Z,264.526
2023-02-03T13:50:01.164Z,258.132
2023-02-03T13:55:01.162Z,232.455
2023-02-03T14:00:01.081Z,209.43800000000002
2023-02-03T14:05:01.119Z,173.053
2023-02-03T14:10:01.061Z,262.782
2023-02-03T14:15:01.100Z,275.427
2023-02-03T14:20:03.703Z,172.737
2023-02-03T14:25:01.077Z,94.682
2023-02-03T14:30:01.109Z,36.518
2023-02-03T14:35:01.124Z,43.066
2023-02-03T14:40:01.100Z,35.78
2023-02-03T14:45:01.133Z,33.7
2023-02-03T14:50:01.187Z,46.931000000000004
2023-02-03T14:55:01.167Z,46.32
2023-02-03T15:00:01.108Z,49.781
2023-02-03T15:05:01.138Z,41.693
2023-02-03T15:10:01.121Z,34.002
2023-02-03T15:15:01.107Z,35.304
2023-02-03T15:20:04.364Z,31.472
2023-02-03T15:25:01.119Z,23.757
2023-02-03T15:30:01.163Z,2.122
2023-02-03T15:35:01.134Z,0.133
2023-02-03T15:40:01.166Z,0
2023-02-03T15:45:01.336Z,0
2023-02-03T15:50:01.192Z,0.005
2023-02-03T15:55:01.230Z,0.062
2023-02-03T16:00:55.242Z,0.067
2023-02-03T16:05:01.146Z,0.129
2023-02-03T16:10:02.338Z,0.136
2023-02-03T16:15:01.180Z,0.129
2023-02-03T16:20:03.669Z,0.108
2023-02-03T16:25:01.286Z,0.099
2023-02-03T16:30:01.208Z,0
2023-02-03T18:20:01.202Z,0.169
2023-02-03T18:30:06.353Z,0.169
2023-02-03T18:35:01.136Z,0.156
2023-02-03T18:40:01.114Z,0.147
2023-02-03T18:45:00.990Z,0.147
2023-02-03T18:50:01.068Z,0.014
2023-02-03T18:55:01.135Z,0
2023-02-03T19:00:01.225Z,0
2023-02-03T19:05:01.212Z,0
2023-02-03T19:10:01.134Z,0
2023-02-03T19:15:01.193Z,0
2023-02-03T19:20:01.216Z,0.002
2023-02-03T19:25:01.079Z,0
2023-02-03T19:30:01.337Z,0.099
2023-02-03T19:35:01.119Z,0.14
2023-02-03T19:40:01.103Z,0.012
2023-02-03T19:45:01.095Z,0.006
2023-02-03T19:50:01.038Z,0
2023-02-03T19:55:01.291Z,0
2023-02-03T20:00:01.167Z,0
2023-02-03T20:05:01.165Z,0
2023-02-03T20:10:01.081Z,0
2023-02-03T20:15:01.132Z,0
2023-02-03T20:20:01.242Z,0
2023-02-03T20:25:01.086Z,0
2023-02-03T20:30:01.249Z,0
2023-02-03T20:35:01.187Z,0
2023-02-03T20:40:01.144Z,0
2023-02-03T20:45:01.235Z,0
2023-02-03T20:50:01.094Z,0
2023-02-03T20:55:01.117Z,0.065
2023-02-03T21:00:01.240Z,0.157
2023-02-03T21:05:01.237Z,0.145
2023-02-03T21:10:01.199Z,0.11
2023-02-03T21:15:01.094Z,0.109
2023-02-03T21:20:01.215Z,0.112
2023-02-03T21:25:01.370Z,0.08
2023-02-03T21:30:01.324Z,0
2023-02-03T21:35:01.266Z,0.001
2023-02-03T21:40:01.112Z,0
2023-02-03T21:45:01.255Z,0
2023-02-03T21:50:01.204Z,0
2023-02-03T21:55:01.242Z,0.001
2023-02-03T22:00:01.248Z,0.007
2023-02-03T22:05:01.318Z,0
2023-02-03T22:10:01.333Z,0.145
2023-02-03T22:15:01.208Z,0
2023-02-03T22:20:01.216Z,0.005
2023-02-03T22:25:01.184Z,0.166
2023-02-03T22:30:01.444Z,0.167
2023-02-03T22:35:01.269Z,0.167
2023-02-03T22:40:01.304Z,0.121
2023-02-03T22:45:01.222Z,0.311
2023-02-03T22:50:01.374Z,0
2023-02-03T22:55:01.447Z,0
2023-02-03T23:00:01.314Z,0
2023-02-03T23:05:01.308Z,0
2023-02-03T23:10:01.211Z,0
2023-02-03T23:15:01.400Z,0.004
2023-02-03T23:20:01.364Z,0.001
2023-02-03T23:25:01.239Z,0
2023-02-03T23:30:01.374Z,0
2023-02-03T23:35:01.408Z,0
2023-02-03T23:40:01.460Z,0
2023-02-03T23:45:01.250Z,0
2023-02-03T23:50:01.296Z,0
2023-02-03T23:55:01.354Z,0
